Time;durP1;ratioP1;P1;durP2;ratioP2;P2;SDS_P1;SDS_P2;PMS_P1;PMS_P2;Temp;Humidity;BMP_temperature;BMP_pressure;BME280_temperature;BME280_humidity;BME280_pressure;Samples;Min_cycle;Max_cycle;Signal;HPM_P1;HPM_P2
2023/03/30 00:01:21;;;;;;;27.17;25.77;;;;;;;17.20;56.21;100476.28;5005273;28;20467;-73
2023/03/30 00:03:47;;;;;;;27.92;26.27;;;;;;;17.20;55.79;100470.84;4994124;28;20049;-74
2023/03/30 00:06:20;;;;;;;29.92;28.33;;;;;;;17.21;55.71;100458.00;4994212;28;20093;-73
2023/03/30 00:08:47;;;;;;;27.98;26.13;;;;;;;17.21;55.79;100463.47;4994374;28;20049;-77
2023/03/30 00:11:17;;;;;;;28.05;26.30;;;;;;;17.20;55.72;100453.66;5001960;28;20034;-75
2023/03/30 00:13:43;;;;;;;28.17;26.63;;;;;;;17.18;56.09;100462.13;5000922;28;20037;-73
2023/03/30 00:16:12;;;;;;;26.95;25.60;;;;;;;17.19;56.00;100471.16;4993888;28;20069;-73
2023/03/30 00:18:38;;;;;;;30.17;28.58;;;;;;;17.16;56.11;100480.75;4994093;28;20030;-73
2023/03/30 00:21:06;;;;;;;29.25;27.65;;;;;;;17.16;55.62;100464.38;5012537;28;20077;-74
2023/03/30 00:23:32;;;;;;;28.48;26.85;;;;;;;17.16;55.88;100453.44;4994013;28;20042;-73
2023/03/30 00:25:57;;;;;;;28.75;27.05;;;;;;;17.16;56.18;100453.44;4993737;28;20081;-73
2023/03/30 00:28:24;;;;;;;28.33;26.83;;;;;;;17.14;56.12;100435.75;4996357;28;20042;-73
2023/03/30 00:30:52;;;;;;;29.67;27.90;;;;;;;17.13;55.96;100432.19;5012447;28;20061;-73
2023/03/30 00:33:18;;;;;;;29.40;27.90;;;;;;;17.12;55.89;100430.56;5011873;28;20076;-73
2023/03/30 00:35:51;;;;;;;27.05;25.50;;;;;;;17.11;55.77;100409.00;4996679;28;20042;-73
2023/03/30 00:38:16;;;;;;;27.23;25.83;;;;;;;17.11;56.15;100409.00;4993980;28;20055;-73
2023/03/30 00:40:53;;;;;;;27.55;26.05;;;;;;;17.11;55.59;100423.50;4998843;28;20401;-72
2023/03/30 00:43:19;;;;;;;27.00;25.60;;;;;;;17.11;55.95;100428.13;5009196;28;20056;-73
2023/03/30 00:45:44;;;;;;;29.77;28.27;;;;;;;17.11;55.61;100428.97;4993765;28;20484;-73
2023/03/30 00:48:20;;;;;;;28.85;27.00;;;;;;;17.09;55.47;100426.50;4993261;28;20030;-73
2023/03/30 00:50:53;;;;;;;28.05;26.55;;;;;;;17.09;55.57;100412.06;4994640;28;20041;-73
2023/03/30 00:53:21;;;;;;;27.35;25.85;;;;;;;17.08;55.82;100422.16;5002484;28;20087;-73
2023/03/30 00:55:49;;;;;;;28.52;26.92;;;;;;;17.07;55.36;100417.78;5001568;28;20033;-73
2023/03/30 00:58:16;;;;;;;30.00;28.40;;;;;;;17.07;55.98;100417.78;4992675;28;20556;-72
2023/03/30 01:00:45;;;;;;;28.23;26.50;;;;;;;17.06;55.79;100418.91;4993191;28;20065;-72
2023/03/30 01:03:20;;;;;;;27.38;25.83;;;;;;;17.05;55.63;100428.19;5003226;28;20100;-72
2023/03/30 01:05:46;;;;;;;27.30;25.90;;;;;;;17.03;55.65;100416.78;4993496;28;20497;-72
2023/03/30 01:08:12;;;;;;;29.25;27.42;;;;;;;17.03;55.77;100416.78;4992876;28;20093;-72
2023/03/30 01:10:38;;;;;;;27.08;25.27;;;;;;;17.03;55.71;100415.94;4993113;28;20045;-73
2023/03/30 01:13:05;;;;;;;29.08;27.35;;;;;;;17.02;55.90;100415.13;5002247;28;20038;-74
2023/03/30 01:15:34;;;;;;;29.13;27.63;;;;;;;17.03;55.50;100421.41;5002037;28;20153;-73
2023/03/30 01:18:23;;;;;;;28.13;26.65;;;;;;;17.01;55.65;100413.53;4992448;28;20031;-74
2023/03/30 01:21:11;;;;;;;27.52;25.92;;;;;;;17.04;55.53;100412.13;4993049;28;20029;-74
2023/03/30 01:24:14;;;;;;;29.17;27.67;;;;;;;17.01;55.41;100407.22;5002068;28;20029;-74
2023/03/30 01:26:42;;;;;;;29.25;27.75;;;;;;;17.02;55.83;100420.59;4986472;28;20046;-74
2023/03/30 01:29:41;;;;;;;28.42;26.83;;;;;;;17.00;55.83;100403.69;4992696;28;20474;-73
2023/03/30 01:32:25;;;;;;;;;;;;;;;16.97;55.84;100395.31;4999928;28;20045;-74
2023/03/30 01:35:18;;;;;;;28.00;26.30;;;;;;;16.96;55.83;100394.50;5006883;28;20420;-74
2023/03/30 01:38:06;;;;;;;25.63;24.27;;;;;;;16.97;55.50;100384.38;4992321;28;20030;-74
2023/03/30 01:41:11;;;;;;;26.85;25.45;;;;;;;16.96;55.60;100386.31;5003165;28;20034;-72
2023/03/30 01:43:52;;;;;;;26.48;24.98;;;;;;;16.97;55.87;100390.66;4999925;28;20046;-74
2023/03/30 01:46:29;;;;;;;26.55;25.15;;;;;;;16.96;55.58;100407.31;5003751;28;20040;-72
2023/03/30 01:49:21;;;;;;;27.17;25.60;;;;;;;16.97;55.76;100406.22;4992636;28;20125;-73
2023/03/30 01:52:12;;;;;;;27.98;26.48;;;;;;;16.94;55.59;100388.53;4992473;28;20387;-75
2023/03/30 01:54:46;;;;;;;27.63;26.23;;;;;;;16.96;55.66;100408.13;4997524;28;20030;-74
2023/03/30 01:57:15;;;;;;;28.85;27.25;;;;;;;16.97;55.88;100407.03;4993426;28;20497;-74
2023/03/30 01:59:53;;;;;;;25.88;24.58;;;;;;;16.96;55.57;100408.13;5011364;28;20057;-73
2023/03/30 02:02:22;;;;;;;27.13;25.63;;;;;;;16.96;55.73;100405.41;5010915;28;20060;-74
2023/03/30 02:04:52;;;;;;;;;;;;;;;16.94;55.64;100415.00;5001876;28;20050;-73
2023/03/30 02:07:22;;;;;;;26.33;24.88;;;;;;;16.95;55.43;100411.16;4994299;28;20084;-72
2023/03/30 02:09:51;;;;;;;27.58;26.17;;;;;;;16.95;55.50;100406.50;4992535;28;20026;-74
2023/03/30 02:12:18;;;;;;;27.50;25.73;;;;;;;16.97;55.77;100406.22;4992357;28;20470;-73
2023/03/30 02:14:47;;;;;;;26.73;25.13;;;;;;;16.98;55.58;100405.09;5001749;28;20390;-75
2023/03/30 02:17:17;;;;;;;;;;;;;;;16.94;55.47;100404.88;4994171;28;20478;-72
2023/03/30 02:19:47;;;;;;;27.20;25.17;;;;;;;16.96;55.59;100396.41;4992253;28;19926;-74
2023/03/30 02:22:17;;;;;;;28.08;26.55;;;;;;;16.96;55.76;100389.03;4992221;28;20482;-73
2023/03/30 02:24:47;;;;;;;25.88;24.55;;;;;;;16.97;55.35;100387.94;5004099;28;20038;-75
2023/03/30 02:27:14;;;;;;;26.90;25.40;;;;;;;17.00;55.60;100391.97;5003834;28;20042;-72
2023/03/30 02:29:42;;;;;;;28.17;26.70;;;;;;;17.00;55.45;100395.50;4996007;28;20474;-72
2023/03/30 02:32:17;;;;;;;28.63;27.02;;;;;;;17.01;55.39;100396.31;4995547;28;20065;-72
2023/03/30 02:35:09;;;;;;;27.23;25.83;;;;;;;17.00;55.43;100400.16;5000962;28;20049;-74
2023/03/30 02:37:38;;;;;;;28.10;26.50;;;;;;;17.02;55.67;100406.94;4998618;28;20027;-72
2023/03/30 02:40:28;;;;;;;27.50;26.05;;;;;;;17.01;55.68;100402.63;4995348;28;20034;-73
2023/03/30 02:43:12;;;;;;;28.73;27.27;;;;;;;17.00;55.35;100408.34;4995777;28;20038;-73
2023/03/30 02:46:05;;;;;;;26.40;25.00;;;;;;;17.00;55.50;100408.34;4996531;28;20026;-73
2023/03/30 02:48:42;;;;;;;27.85;26.23;;;;;;;16.99;55.42;100393.09;5004155;28;20442;-74
2023/03/30 02:51:35;;;;;;;28.02;26.40;;;;;;;16.99;55.47;100399.34;5000196;28;20097;-73
2023/03/30 02:54:30;;;;;;;26.90;25.40;;;;;;;16.97;55.86;100389.84;4995976;28;20117;-73
2023/03/30 02:57:19;;;;;;;25.85;24.33;;;;;;;16.97;55.43;100396.09;4995930;28;20034;-74
2023/03/30 03:00:11;;;;;;;26.88;25.27;;;;;;;16.97;55.76;100398.84;5003565;28;20121;-73
2023/03/30 03:02:58;;;;;;;27.75;26.25;;;;;;;16.96;55.74;100405.41;5013903;28;20030;-75
2023/03/30 03:05:26;;;;;;;26.88;25.40;;;;;;;16.99;55.62;100404.81;5013722;28;20034;-72
2023/03/30 03:07:52;;;;;;;26.23;24.75;;;;;;;17.00;55.40;100397.44;4996766;28;20541;-74
2023/03/30 03:10:18;;;;;;;27.75;26.10;;;;;;;17.01;55.83;100407.22;5011272;28;20497;-74
2023/03/30 03:12:44;;;;;;;26.70;25.30;;;;;;;16.98;55.55;100396.91;4978190;28;20042;-73
2023/03/30 03:15:11;;;;;;;27.75;26.10;;;;;;;16.99;55.50;100399.34;4995376;28;20031;-74
2023/03/30 03:17:37;;;;;;;26.60;25.25;;;;;;;17.00;55.29;100395.50;4995706;28;20121;-72
2023/03/30 03:20:04;;;;;;;29.05;27.55;;;;;;;17.01;55.24;100390.88;5002818;28;20034;-73
2023/03/30 03:22:30;;;;;;;27.95;26.38;;;;;;;17.02;55.44;100390.59;4995169;28;20073;-74
2023/03/30 03:24:56;;;;;;;28.08;26.58;;;;;;;17.03;55.36;100381.31;5007235;28;20466;-73
2023/03/30 03:27:21;;;;;;;28.80;26.85;;;;;;;17.03;55.23;100375.00;5012433;28;20026;-73
2023/03/30 03:29:48;;;;;;;30.85;29.15;;;;;;;17.03;55.40;100378.56;5008471;28;20062;-74
2023/03/30 03:32:13;;;;;;;30.02;28.25;;;;;;;17.04;55.53;100374.72;4998690;28;20043;-74
2023/03/30 03:34:43;;;;;;;27.63;26.23;;;;;;;17.04;55.30;100371.19;4994686;28;20101;-74
2023/03/30 03:37:09;;;;;;;28.05;26.55;;;;;;;17.03;55.36;100375.00;4994419;28;20184;-74
2023/03/30 03:39:36;;;;;;;28.35;26.85;;;;;;;17.04;55.29;100376.66;4995415;28;20061;-74
2023/03/30 03:42:02;;;;;;;28.52;26.95;;;;;;;17.03;55.41;100380.47;5005153;28;20047;-73
2023/03/30 03:44:27;;;;;;;26.73;25.33;;;;;;;17.01;55.40;100379.94;4994641;28;20046;-73
2023/03/30 03:46:53;;;;;;;27.27;25.83;;;;;;;16.97;55.73;100382.47;4998259;28;20038;-73
2023/03/30 03:49:18;;;;;;;28.98;27.35;;;;;;;16.97;55.80;100387.13;5003899;28;20041;-73
2023/03/30 03:51:43;;;;;;;27.10;25.77;;;;;;;16.95;55.37;100389.31;5006058;28;20041;-72
2023/03/30 03:54:09;;;;;;;27.58;25.92;;;;;;;16.94;55.71;100374.88;4994377;28;20182;-72
2023/03/30 03:56:34;;;;;;;27.90;26.50;;;;;;;16.94;55.61;100382.25;4994706;28;20031;-74
2023/03/30 03:59:02;;;;;;;27.70;26.17;;;;;;;16.93;55.63;100392.34;4996542;28;20036;-75
2023/03/30 04:01:28;;;;;;;28.10;26.63;;;;;;;16.96;55.50;100378.13;5012849;28;20411;-74
2023/03/30 04:03:54;;;;;;;27.83;26.40;;;;;;;16.96;55.74;100377.28;5007851;28;20037;-72
2023/03/30 04:06:19;;;;;;;27.73;26.27;;;;;;;16.96;55.36;100378.13;4994567;28;20030;-73
2023/03/30 04:08:45;;;;;;;28.60;27.10;;;;;;;16.96;55.42;100371.84;5006233;28;20053;-73
2023/03/30 04:11:11;;;;;;;29.35;27.58;;;;;;;16.96;55.45;100369.94;4998771;28;20117;-73
2023/03/30 04:13:38;;;;;;;27.50;26.10;;;;;;;16.97;55.80;100366.09;5003734;28;20035;-72
2023/03/30 04:16:04;;;;;;;28.15;26.45;;;;;;;16.99;55.42;100369.34;5004688;28;20070;-73
2023/03/30 04:18:32;;;;;;;28.00;26.40;;;;;;;17.00;55.62;100361.97;5000139;28;20034;-73
2023/03/30 04:21:03;;;;;;;28.60;26.88;;;;;;;17.00;55.85;100353.78;5008975;28;20470;-73
2023/03/30 04:23:32;;;;;;;27.88;26.40;;;;;;;17.01;55.62;100358.13;5006956;28;20029;-74
2023/03/30 04:26:01;;;;;;;26.35;25.05;;;;;;;16.99;55.93;100366.63;4994127;28;20049;-73
2023/03/30 04:28:28;;;;;;;28.48;26.73;;;;;;;16.98;55.64;100362.25;4976307;28;20438;-73
2023/03/30 04:31:02;;;;;;;28.17;26.67;;;;;;;16.98;55.55;100354.06;5000473;28;20496;-73
2023/03/30 04:33:28;;;;;;;29.38;27.65;;;;;;;16.99;55.86;100350.25;5009118;28;20481;-74
2023/03/30 04:35:54;;;;;;;27.67;26.17;;;;;;;17.00;55.54;100353.78;4998161;28;20053;-74
2023/03/30 04:38:23;;;;;;;30.13;28.25;;;;;;;16.99;55.56;100352.97;4993316;28;20085;-73
2023/03/30 04:40:50;;;;;;;27.85;25.77;;;;;;;17.00;55.57;100364.69;4996709;28;20034;-71
2023/03/30 04:43:18;;;;;;;27.77;26.10;;;;;;;16.99;55.84;100374.81;4994578;28;20034;-73
2023/03/30 04:45:53;;;;;;;;;;;;;;;16.96;55.63;100374.56;4997932;28;20073;-72
2023/03/30 04:48:20;;;;;;;27.88;25.92;;;;;;;16.95;55.87;100370.22;4993037;28;19925;-73
2023/03/30 04:50:48;;;;;;;27.33;25.92;;;;;;;16.93;56.02;100372.44;4999083;28;20525;-74
2023/03/30 04:53:14;;;;;;;27.23;25.73;;;;;;;16.92;55.98;100371.63;5011328;28;20042;-75
2023/03/30 04:55:40;;;;;;;25.17;23.98;;;;;;;16.92;55.61;100371.63;5008999;28;20050;-75
2023/03/30 04:58:05;;;;;;;25.85;24.55;;;;;;;16.92;55.72;100382.53;4996400;28;20098;-74
2023/03/30 05:00:31;;;;;;;28.33;26.73;;;;;;;16.90;56.21;100379.28;5003222;28;20485;-73
2023/03/30 05:02:57;;;;;;;27.25;25.83;;;;;;;16.91;56.22;100372.75;4998474;28;20426;-76
2023/03/30 05:05:22;;;;;;;28.33;26.77;;;;;;;16.94;56.15;100387.72;5006435;28;20037;-73
2023/03/30 05:07:47;;;;;;;26.40;25.05;;;;;;;16.92;56.19;100390.72;4996392;28;20068;-75
2023/03/30 05:10:13;;;;;;;27.40;25.90;;;;;;;16.92;55.90;100400.84;4975907;28;20137;-74
2023/03/30 05:12:38;;;;;;;26.52;24.90;;;;;;;16.93;56.14;100394.25;5001604;28;20157;-75
2023/03/30 05:15:04;;;;;;;26.75;25.15;;;;;;;16.92;56.22;100392.66;4994558;28;20048;-73
2023/03/30 05:17:33;;;;;;;28.63;26.88;;;;;;;16.92;55.80;100389.91;5002541;28;20034;-74
2023/03/30 05:19:58;;;;;;;26.58;25.27;;;;;;;16.89;55.78;100387.78;4992890;28;20108;-73
2023/03/30 05:22:24;;;;;;;27.25;25.00;;;;;;;16.86;56.27;100376.34;4998441;28;20458;-74
2023/03/30 05:24:50;;;;;;;26.77;25.45;;;;;;;16.84;56.08;100385.94;4978100;28;20049;-74
2023/03/30 05:27:16;;;;;;;27.98;26.65;;;;;;;16.82;56.15;100393.59;4997004;28;20135;-77
2023/03/30 05:29:42;;;;;;;27.00;25.70;;;;;;;16.84;55.97;100394.13;4993033;28;20475;-73
2023/03/30 05:32:08;;;;;;;26.05;24.75;;;;;;;16.81;56.16;100403.69;4975643;28;20355;-78
2023/03/30 05:34:33;;;;;;;27.27;25.88;;;;;;;16.81;56.15;100411.88;4992694;28;20061;-74
2023/03/30 05:36:58;;;;;;;28.00;26.60;;;;;;;16.80;56.41;100404.78;5005114;28;20033;-72
2023/03/30 05:39:24;;;;;;;29.05;27.25;;;;;;;16.81;56.12;100398.25;4995572;28;20058;-72
2023/03/30 05:41:49;;;;;;;27.08;25.48;;;;;;;16.81;56.50;100400.16;4992466;28;20058;-74
2023/03/30 05:44:15;;;;;;;27.30;25.90;;;;;;;16.81;56.16;100394.72;4992777;28;20026;-72
2023/03/30 05:46:40;;;;;;;26.83;25.33;;;;;;;16.78;56.22;100387.09;4998086;28;20045;-72
2023/03/30 05:49:06;;;;;;;26.52;25.00;;;;;;;16.75;56.67;100387.66;4994234;28;20083;-74
2023/03/30 05:51:31;;;;;;;26.20;24.80;;;;;;;16.76;56.21;100394.75;4974825;28;20045;-72
2023/03/30 05:53:57;;;;;;;27.77;26.38;;;;;;;16.77;56.72;100396.34;4992642;28;20035;-73
2023/03/30 05:56:23;;;;;;;28.17;26.25;;;;;;;16.77;56.44;100394.44;4991925;28;20054;-74
2023/03/30 05:58:50;;;;;;;26.27;24.92;;;;;;;16.76;56.23;100398.28;4992444;28;20034;-73
2023/03/30 06:01:15;;;;;;;27.10;25.70;;;;;;;16.77;56.51;100397.16;5011134;28;20034;-74
2023/03/30 06:03:41;;;;;;;26.08;24.77;;;;;;;16.76;56.61;100406.47;5010806;28;20057;-73
2023/03/30 06:06:07;;;;;;;28.92;26.63;;;;;;;16.73;56.25;100407.03;5011573;28;20095;-73
2023/03/30 06:08:32;;;;;;;28.40;26.90;;;;;;;16.72;56.48;100413.59;5010901;28;20040;-74
2023/03/30 06:10:58;;;;;;;26.73;25.02;;;;;;;16.70;56.77;100407.59;5002338;28;20073;-74
2023/03/30 06:13:24;;;;;;;27.55;25.77;;;;;;;16.71;56.22;100416.63;4991797;28;20047;-72
2023/03/30 06:15:50;;;;;;;25.23;24.02;;;;;;;16.72;56.58;100419.03;4994509;28;20110;-73
2023/03/30 06:18:15;;;;;;;25.65;24.27;;;;;;;16.71;56.49;100424.81;4998832;28;20036;-74
2023/03/30 06:20:41;;;;;;;27.23;25.70;;;;;;;16.71;56.45;100422.09;5004245;28;20046;-73
2023/03/30 06:23:06;;;;;;;26.70;25.10;;;;;;;16.71;56.67;100422.88;4975029;28;20034;-72
2023/03/30 06:25:32;;;;;;;28.80;27.23;;;;;;;16.70;56.55;100420.44;4972576;28;20122;-73
2023/03/30 06:27:58;;;;;;;28.30;26.30;;;;;;;16.70;56.08;100426.69;5010952;28;20040;-73
2023/03/30 06:30:23;;;;;;;27.13;25.73;;;;;;;16.70;56.04;100418.53;4989156;28;20116;-74
2023/03/30 06:32:48;;;;;;;28.08;26.52;;;;;;;16.72;56.59;100426.41;4982430;28;20066;-73
2023/03/30 06:35:16;;;;;;;26.27;24.75;;;;;;;16.73;56.45;100438.94;4992186;28;20046;-74
2023/03/30 06:37:43;;;;;;;26.83;25.33;;;;;;;16.70;56.45;100432.16;4991616;28;20038;-73
2023/03/30 06:40:12;;;;;;;27.75;26.10;;;;;;;16.70;56.21;100434.88;4993484;28;20041;-74
2023/03/30 06:42:42;;;;;;;28.25;26.23;;;;;;;16.69;56.20;100437.91;5010292;28;20072;-78
2023/03/30 06:45:09;;;;;;;26.58;24.98;;;;;;;16.70;55.95;100440.34;4993384;28;20073;-73
2023/03/30 06:47:35;;;;;;;28.88;27.15;;;;;;;16.67;56.58;100436.28;5010666;28;20042;-74
2023/03/30 06:50:00;;;;;;;25.60;24.30;;;;;;;16.69;56.18;100441.44;5010981;28;20045;-73
2023/03/30 06:52:26;;;;;;;28.15;26.65;;;;;;;16.65;56.58;100438.47;4998351;28;20038;-73
2023/03/30 06:54:51;;;;;;;25.88;24.27;;;;;;;16.67;56.16;100433.53;4993433;28;20042;-73
2023/03/30 06:57:16;;;;;;;28.38;26.63;;;;;;;16.69;56.16;100440.66;5011222;28;20030;-73
2023/03/30 06:59:42;;;;;;;27.70;26.20;;;;;;;16.67;56.35;100436.28;4992751;28;20045;-73
2023/03/30 07:02:13;;;;;;;26.30;24.80;;;;;;;16.66;56.28;100442.03;5009238;28;20113;-74
2023/03/30 07:04:39;;;;;;;27.65;25.90;;;;;;;16.65;56.24;100449.38;5002653;28;20046;-73
2023/03/30 07:07:04;;;;;;;26.38;25.05;;;;;;;16.65;56.51;100432.22;4981743;28;20044;-74
2023/03/30 07:09:30;;;;;;;27.63;26.13;;;;;;;16.66;56.08;100442.03;5010597;28;20425;-74
2023/03/30 07:11:55;;;;;;;25.85;24.45;;;;;;;16.65;56.20;100433.03;4994037;28;20045;-76
2023/03/30 07:14:21;;;;;;;27.70;26.02;;;;;;;16.67;56.42;100441.72;4986737;28;20038;-73
2023/03/30 07:16:47;;;;;;;26.48;25.17;;;;;;;16.65;56.33;100449.38;4999344;28;20073;-74
2023/03/30 07:19:13;;;;;;;26.17;24.77;;;;;;;16.67;56.34;100452.63;4995403;28;20066;-73
2023/03/30 07:21:39;;;;;;;26.90;25.42;;;;;;;16.67;56.48;100451.84;4999546;28;20059;-74
2023/03/30 07:24:06;;;;;;;26.08;24.77;;;;;;;16.68;56.06;100461.63;4983209;28;20112;-75
2023/03/30 07:26:35;;;;;;;27.27;25.38;;;;;;;16.68;56.36;100461.63;4998295;28;20034;-73
2023/03/30 07:29:01;;;;;;;26.88;25.27;;;;;;;16.68;55.98;100461.63;4995344;28;20038;-74
2023/03/30 07:31:27;;;;;;;26.20;24.95;;;;;;;16.66;56.43;100464.66;4995128;28;20053;-73
2023/03/30 07:33:52;;;;;;;28.42;26.83;;;;;;;16.68;56.21;100469.81;5001362;28;20042;-73
2023/03/30 07:36:18;;;;;;;27.15;25.45;;;;;;;16.69;56.33;100474.19;5000149;28;20050;-73
2023/03/30 07:38:44;;;;;;;29.50;27.60;;;;;;;16.65;56.45;100470.38;4966923;28;20118;-76
2023/03/30 07:41:12;;;;;;;24.50;23.27;;;;;;;16.66;56.51;100474.75;4975149;28;20473;-74
2023/03/30 07:43:39;;;;;;;26.95;25.10;;;;;;;16.65;56.15;100484.84;4974537;28;20030;-74
2023/03/30 07:46:05;;;;;;;26.42;24.92;;;;;;;16.65;56.50;100486.75;4975014;28;20545;-76
2023/03/30 07:48:31;;;;;;;25.55;24.23;;;;;;;16.66;56.50;100491.13;4972358;28;20129;-73
2023/03/30 07:51:01;;;;;;;26.27;24.92;;;;;;;16.65;56.38;100492.22;4956501;28;20039;-75
2023/03/30 07:53:26;;;;;;;26.38;25.08;;;;;;;16.65;56.11;100493.00;4960330;28;20065;-74
2023/03/30 07:55:51;;;;;;;27.20;25.70;;;;;;;16.65;56.33;100503.94;4960094;28;20482;-73
2023/03/30 07:58:17;;;;;;;27.33;25.83;;;;;;;16.65;56.28;100503.94;4964167;28;20031;-76
2023/03/30 08:00:43;;;;;;;28.60;26.83;;;;;;;16.67;56.01;100514.56;4955891;28;20146;-74
2023/03/30 08:03:10;;;;;;;27.35;25.70;;;;;;;16.67;56.36;100511.81;4955891;28;20066;-73
2023/03/30 08:05:38;;;;;;;27.25;25.80;;;;;;;16.64;56.64;100498.78;4964498;28;20483;-74
2023/03/30 08:08:04;;;;;;;26.40;24.83;;;;;;;16.61;56.59;100518.44;4959633;28;20061;-73
2023/03/30 08:10:29;;;;;;;26.73;24.80;;;;;;;16.64;56.13;100515.13;4959557;28;20059;-74
2023/03/30 08:12:55;;;;;;;26.80;25.10;;;;;;;16.64;56.69;100528.78;4955378;28;20349;-75
2023/03/30 08:15:21;;;;;;;28.98;26.65;;;;;;;16.66;56.52;100521.13;4957506;28;20391;-74
2023/03/30 08:17:46;;;;;;;27.60;25.80;;;;;;;16.68;56.14;100510.72;4965047;28;20039;-73
2023/03/30 08:20:12;;;;;;;27.27;25.67;;;;;;;16.65;56.39;100523.00;4973870;28;20034;-74
2023/03/30 08:22:38;;;;;;;29.33;27.30;;;;;;;16.67;56.00;100522.75;4961771;28;20070;-73
2023/03/30 08:25:04;;;;;;;26.88;25.33;;;;;;;16.69;56.23;100515.09;4960033;28;20402;-73
2023/03/30 08:27:30;;;;;;;25.90;24.08;;;;;;;16.72;55.88;100516.41;4966467;28;20462;-74
2023/03/30 08:29:55;;;;;;;24.83;23.52;;;;;;;16.71;55.97;100512.88;4968392;28;20057;-73
2023/03/30 08:32:21;;;;;;;26.17;24.60;;;;;;;16.71;56.37;100518.34;4969687;28;20463;-76
2023/03/30 08:34:46;;;;;;;26.92;25.02;;;;;;;16.75;56.09;100518.56;4952971;28;20035;-74
2023/03/30 08:37:11;;;;;;;24.88;23.35;;;;;;;16.77;56.57;100524.53;4970114;28;20058;-77
2023/03/30 08:39:37;;;;;;;29.83;27.58;;;;;;;16.80;56.25;100516.63;4989409;28;20050;-73
2023/03/30 08:42:29;;;;;;;26.40;24.90;;;;;;;16.81;56.20;100525.63;4992442;28;20135;-73
2023/03/30 08:44:56;;;;;;;28.50;26.83;;;;;;;16.83;56.14;100521.50;4985980;28;20042;-73
2023/03/30 08:47:35;;;;;;;28.55;26.48;;;;;;;16.85;56.46;100515.75;5008368;28;20709;-74
2023/03/30 08:50:12;;;;;;;24.98;23.60;;;;;;;16.87;56.57;100519.81;5000793;28;20026;-73
2023/03/30 08:52:44;;;;;;;25.33;23.98;;;;;;;16.89;56.48;100525.00;5006171;28;20132;-74
2023/03/30 08:55:45;;;;;;;25.27;23.92;;;;;;;16.89;56.52;100527.72;5007023;28;20034;-75
2023/03/30 08:58:39;;;;;;;25.98;24.58;;;;;;;16.89;56.63;100529.66;4994272;28;20030;-75
2023/03/30 09:01:33;;;;;;;26.02;24.60;;;;;;;16.86;56.43;100531.84;5009986;28;20539;-74
2023/03/30 09:04:26;;;;;;;26.60;24.92;;;;;;;16.88;56.35;100534.25;5008565;28;20033;-73
2023/03/30 09:06:56;;;;;;;26.67;25.17;;;;;;;16.87;56.82;100541.63;5007103;28;20045;-75
2023/03/30 09:09:26;;;;;;;27.95;25.42;;;;;;;16.93;56.86;100547.03;5004409;28;20030;-74
2023/03/30 09:12:10;;;;;;;26.83;25.23;;;;;;;16.95;56.49;100550.28;5000290;28;20031;-75
2023/03/30 09:14:41;;;;;;;28.70;26.80;;;;;;;16.97;56.70;100550.81;4996100;28;20046;-74
2023/03/30 09:17:20;;;;;;;27.10;25.27;;;;;;;16.97;56.90;100550.81;4999818;28;20034;-74
2023/03/30 09:19:52;;;;;;;28.23;26.52;;;;;;;17.01;56.82;100538.22;5008061;28;20081;-78
2023/03/30 09:22:19;;;;;;;27.45;26.05;;;;;;;17.03;56.52;100546.91;5005617;28;20470;-76
2023/03/30 09:24:44;;;;;;;29.63;26.88;;;;;;;17.07;56.77;100550.72;5006238;28;20042;-74
2023/03/30 09:27:15;;;;;;;28.52;26.95;;;;;;;17.06;56.54;100557.28;5003888;28;20374;-75
2023/03/30 09:29:54;;;;;;;30.15;28.13;;;;;;;17.05;56.83;100556.44;5005711;28;20044;-74
2023/03/30 09:32:31;;;;;;;27.33;25.90;;;;;;;17.02;57.03;100558.94;4998288;28;20077;-76
2023/03/30 09:35:43;;;;;;;29.70;27.38;;;;;;;17.05;56.65;100561.09;5008697;28;20030;-74
2023/03/30 09:38:11;;;;;;;25.90;24.60;;;;;;;17.07;57.16;100558.91;4990984;28;20058;-73
2023/03/30 09:41:06;;;;;;;28.60;26.83;;;;;;;17.10;56.72;100569.22;5007501;28;20038;-77
2023/03/30 09:43:34;;;;;;;27.95;26.35;;;;;;;17.14;56.71;100566.75;4995081;28;20462;-75
2023/03/30 09:46:05;;;;;;;26.77;25.33;;;;;;;17.18;56.94;100576.75;5005818;28;20026;-78
2023/03/30 09:48:43;;;;;;;28.45;26.35;;;;;;;17.22;56.68;100579.75;5002979;28;20230;-74
2023/03/30 09:51:27;;;;;;;26.60;25.15;;;;;;;17.21;56.91;100575.38;4991298;28;20038;-75
2023/03/30 09:54:00;;;;;;;29.67;27.50;;;;;;;17.23;56.88;100584.09;4994111;28;20041;-73
2023/03/30 09:56:33;;;;;;;28.27;26.50;;;;;;;17.23;56.91;100589.53;5008387;28;20033;-78
2023/03/30 09:59:38;;;;;;;27.55;25.83;;;;;;;17.21;57.15;100573.47;4995797;28;20085;-74
2023/03/30 10:02:12;;;;;;;27.95;26.30;;;;;;;17.22;56.86;100599.66;4990296;28;20042;-73
2023/03/30 10:04:53;;;;;;;30.27;28.08;;;;;;;17.24;57.10;100583.81;4995260;28;20041;-76
2023/03/30 10:07:36;;;;;;;29.13;27.15;;;;;;;17.25;57.00;100593.59;4997932;28;20023;-73
2023/03/30 10:10:28;;;;;;;28.88;26.95;;;;;;;17.23;57.07;100584.88;5004781;28;20105;-73
2023/03/30 10:12:56;;;;;;;27.83;26.13;;;;;;;17.21;57.21;100578.09;5009608;28;20037;-74
2023/03/30 10:15:26;;;;;;;27.60;26.00;;;;;;;17.26;57.42;100588.97;4989036;28;20421;-75
2023/03/30 10:17:55;;;;;;;28.65;26.48;;;;;;;17.31;57.29;100591.63;4990813;28;20516;-73
2023/03/30 10:20:38;;;;;;;28.17;25.98;;;;;;;17.33;56.92;100586.69;4991174;28;20153;-74
2023/03/30 10:23:12;;;;;;;27.60;26.08;;;;;;;17.39;56.73;100590.19;4990802;28;20026;-75
2023/03/30 10:25:41;;;;;;;31.08;28.85;;;;;;;17.39;57.18;100588.28;4996941;28;20033;-74
2023/03/30 10:28:25;;;;;;;;;;;;;;;17.38;56.95;100594.00;4996373;28;20030;-74
2023/03/30 10:30:55;;;;;;;30.60;28.10;;;;;;;17.43;56.57;100594.75;4991713;28;19909;-78
2023/03/30 10:33:21;;;;;;;27.05;25.65;;;;;;;17.43;56.31;100604.88;4992196;28;20023;-77
2023/03/30 10:35:52;;;;;;;29.35;26.85;;;;;;;17.44;56.59;100601.84;4996967;28;20108;-75
2023/03/30 10:38:19;;;;;;;30.08;27.45;;;;;;;17.48;56.56;100594.69;5007551;28;20434;-74
2023/03/30 10:40:46;;;;;;;28.35;26.55;;;;;;;17.47;56.38;100604.00;5006488;28;20467;-74
2023/03/30 10:43:19;;;;;;;28.92;27.52;;;;;;;17.49;56.67;100595.53;4992063;28;20031;-74
2023/03/30 10:45:52;;;;;;;30.30;28.20;;;;;;;17.49;56.62;100611.91;4993620;28;20041;-74
2023/03/30 10:48:41;;;;;;;30.13;28.48;;;;;;;17.50;56.76;100603.41;5014593;28;20409;-74
2023/03/30 10:51:20;;;;;;;28.02;26.52;;;;;;;17.52;56.57;100603.94;4995365;28;20041;-74
2023/03/30 10:53:48;;;;;;;29.15;26.70;;;;;;;17.56;56.75;100587.75;4995842;28;20037;-75
2023/03/30 10:56:20;;;;;;;28.90;26.85;;;;;;;17.60;56.39;100588.81;4996981;28;20030;-74
2023/03/30 10:59:00;;;;;;;28.60;26.60;;;;;;;17.61;56.92;100600.53;4998657;28;20038;-78
2023/03/30 11:01:31;;;;;;;28.83;26.90;;;;;;;17.64;56.51;100587.13;4995986;28;20030;-74
2023/03/30 11:04:06;;;;;;;29.33;27.55;;;;;;;17.63;56.92;100580.03;4995181;28;20027;-73
2023/03/30 11:06:37;;;;;;;28.95;27.08;;;;;;;17.69;56.30;100597.97;4996238;28;20045;-73
2023/03/30 11:09:04;;;;;;;30.70;28.80;;;;;;;17.69;56.19;100584.31;5013805;28;20029;-74
2023/03/30 11:11:33;;;;;;;29.20;27.60;;;;;;;17.71;56.48;100595.78;4997648;28;20041;-73
2023/03/30 11:14:01;;;;;;;29.35;27.63;;;;;;;17.74;56.13;100586.19;4995089;28;20030;-72
2023/03/30 11:16:46;;;;;;;27.88;26.48;;;;;;;17.77;56.29;100584.78;4995538;28;20030;-75
2023/03/30 11:19:38;;;;;;;28.88;27.38;;;;;;;17.80;56.32;100586.94;5013741;28;20030;-76
2023/03/30 11:22:37;;;;;;;30.27;28.35;;;;;;;17.79;56.68;100585.28;4996856;28;20038;-77
2023/03/30 11:25:16;;;;;;;29.80;28.20;;;;;;;17.76;56.13;100596.78;5011513;28;20025;-76
2023/03/30 11:28:07;;;;;;;28.67;27.20;;;;;;;17.79;56.36;100585.28;4995262;28;20046;-77
2023/03/30 11:30:35;;;;;;;28.63;27.13;;;;;;;17.83;56.30;100594.53;5010012;28;20034;-77